Darstellungsparameter: Aktuell verwendete Einstellungen:
Skalierung der Graphiken ... ?
xyx+y,   Skalierungsfaktor:      Skalierung: Modus: x, Faktor: 1
Darstellungszeitraum ... ?
Vom - - bis: - -   Zeitraum: 23.12.2009 - 29.12.2009
Min/Max/Avg-Anzeige ... ?
Zeige MMA aktuell
Zeige MMA Monat
Zeige MMA alles
Zeige --A aktuell
Zeige --A Monat
Zeige --A alles
Keine MMA-Anzeige
MMA:
Average (ber die Originaldaten)
MMA-Basis: 23.12.2009 - 29.12.2009
Quicknavigation für Darstellung... ?
Tage:      1T, 2T, 3T, 5T -1T -2T -3T -5T +1T +2T +3T +5T
Wochen: 1W, 2W, 3W -1W -2W -3W +1W +2W +3W
Monate: 1M, 3M, 6M -1M -3M -6M +1M +3M +6M
Jahre:    1J, 3J, 5J, 10J -1J -3J -5J -10J +1J +3J +5J +10J
Nutze für die Darstellung ... ?
Originaldaten oder Mittelwerte auf ...
Stundenbasis Tagesbasis Wochenbasis
Monatsbasis Jahresbasis      Datenbasis: Original-Daten
Darstellen als:
Statistik (Auto) Statistik J:M      Darstellung:
Zur Graphik,    zurück zur Übersicht aller Sensoren.
 
Tabellarische Datenbersicht: ?
 
Sensor: Nr:Datum:Temp:Abs-Feuchte:Windchill:Wind:
Aussen-T/F 1 23-12-2009 00:09:02 0.4 C 4.68 g/m*3 0.4 C 0 km/h
2 23-12-2009 00:21:02 0.4 C 4.68 g/m*3 0.4 C 0 km/h
3 23-12-2009 00:33:02 0.5 C 4.71 g/m*3 0.5 C 0 km/h
4 23-12-2009 00:45:02 0.5 C 4.71 g/m*3 0.5 C 0 km/h
5 23-12-2009 00:57:03 0.6 C 4.8 g/m*3 0.6 C 0 km/h
6 23-12-2009 01:09:03 0.5 C 4.76 g/m*3 0.5 C 0 km/h
7 23-12-2009 01:21:03 0.5 C 4.76 g/m*3 0.5 C 0 km/h
8 23-12-2009 01:33:03 0.6 C 4.8 g/m*3 0.6 C 0 km/h
9 23-12-2009 01:45:03 0.6 C 4.8 g/m*3 0.6 C 0 km/h
10 23-12-2009 01:57:03 0.6 C 4.8 g/m*3 0.6 C 0 km/h
11 23-12-2009 02:09:03 0.6 C 4.8 g/m*3 0.6 C 0 km/h
12 23-12-2009 02:21:03 0.6 C 4.8 g/m*3 0.6 C 0 km/h
13 23-12-2009 02:33:03 0.6 C 4.8 g/m*3 0.6 C 0 km/h
14 23-12-2009 02:45:03 0.7 C 4.83 g/m*3 0.7 C 0 km/h
15 23-12-2009 02:57:03 0.6 C 4.8 g/m*3 0.6 C 0 km/h
16 23-12-2009 03:09:03 0.6 C 4.8 g/m*3 0.6 C 0 km/h
17 23-12-2009 03:21:03 0.5 C 4.76 g/m*3 0.5 C 0 km/h
18 23-12-2009 03:33:03 0.4 C 4.73 g/m*3 0.4 C 0 km/h
19 23-12-2009 03:45:03 0.4 C 4.73 g/m*3 0.4 C 0 km/h
20 23-12-2009 03:57:03 0.3 C 4.7 g/m*3 0.3 C 0 km/h
21 23-12-2009 04:09:03 0.3 C 4.7 g/m*3 0.3 C 0 km/h
22 23-12-2009 04:21:03 0.3 C 4.7 g/m*3 0.3 C 0 km/h
23 23-12-2009 04:33:03 0.3 C 4.7 g/m*3 0.3 C 0 km/h
24 23-12-2009 04:45:03 0.4 C 4.73 g/m*3 0.4 C 0 km/h
25 23-12-2009 04:57:04 0.2 C 4.67 g/m*3 0.2 C 0 km/h
Sensor: Nr:Datum:Temp:Abs-Feuchte:Windchill:Wind:
Aussen-T/F 26 23-12-2009 05:09:04 0.3 C 4.7 g/m*3 0.3 C 0 km/h
27 23-12-2009 05:21:04 0.3 C 4.7 g/m*3 0.3 C 0 km/h
28 23-12-2009 05:33:04 0.3 C 4.7 g/m*3 0.3 C 0 km/h
29 23-12-2009 05:45:04 0.3 C 4.7 g/m*3 0.3 C 0 km/h
30 23-12-2009 05:57:04 0.3 C 4.7 g/m*3 0.3 C 0 km/h
31 23-12-2009 06:09:04 0.1 C 4.63 g/m*3 0.1 C 0 km/h
32 23-12-2009 06:21:04 0.1 C 4.63 g/m*3 0.1 C 0 km/h
33 23-12-2009 06:33:03 0.2 C 4.67 g/m*3 0.2 C 0 km/h
34 23-12-2009 06:45:02 0.3 C 4.7 g/m*3 0.3 C 0 km/h
35 23-12-2009 06:57:02 0.3 C 4.7 g/m*3 0.3 C 0 km/h
36 23-12-2009 07:09:02 0.3 C 4.7 g/m*3 0.3 C 0 km/h
37 23-12-2009 07:21:02 0.1 C 4.63 g/m*3 0.1 C 0 km/h
38 23-12-2009 07:33:02 -0.2 C 4.54 g/m*3 -0.2 C 0 km/h
39 23-12-2009 07:45:02 -0.4 C 4.48 g/m*3 -0.4 C 0 km/h
40 23-12-2009 07:57:02 -0.6 C 4.42 g/m*3 -0.6 C 0 km/h
41 23-12-2009 08:09:02 -1 C 4.29 g/m*3 -1 C 0 km/h
42 23-12-2009 08:21:02 -1.2 C 4.24 g/m*3 -1.2 C 0 km/h
43 23-12-2009 08:33:02 -1.4 C 4.18 g/m*3 -1.4 C 0 km/h
44 23-12-2009 08:45:01 -1.4 C 4.18 g/m*3 -1.4 C 0 km/h
45 23-12-2009 08:57:01 -1.4 C 4.18 g/m*3 -1.4 C 0 km/h
46 23-12-2009 09:09:01 -1.4 C 4.18 g/m*3 -1.4 C 0 km/h
47 23-12-2009 09:21:01 -1.2 C 4.24 g/m*3 -1.2 C 0 km/h
48 23-12-2009 09:33:01 -1 C 4.29 g/m*3 -1 C 0 km/h
49 23-12-2009 09:45:01 -0.5 C 4.45 g/m*3 -0.5 C 0 km/h
50 23-12-2009 09:57:01 -0.3 C 4.51 g/m*3 -0.3 C 0 km/h
Sensor: Nr:Datum:Temp:Abs-Feuchte:Windchill:Wind:
Aussen-T/F 51 23-12-2009 10:09:01 0.1 C 4.63 g/m*3 0.1 C 0 km/h
52 23-12-2009 10:21:02 0.2 C 4.67 g/m*3 0.2 C 0 km/h
53 23-12-2009 10:33:01 0.2 C 4.67 g/m*3 0.2 C 0 km/h
54 23-12-2009 10:45:02 0.5 C 4.76 g/m*3 0.5 C 0 km/h
55 23-12-2009 10:57:02 0.8 C 4.86 g/m*3 0.8 C 0 km/h
56 23-12-2009 11:09:02 0.8 C 4.81 g/m*3 0.8 C 0 km/h
57 23-12-2009 11:21:03 0.9 C 4.74 g/m*3 0.9 C 0 km/h
58 23-12-2009 11:33:02 0.9 C 4.69 g/m*3 0.9 C 0 km/h
59 23-12-2009 11:45:02 0.5 C 4.46 g/m*3 0.5 C 0 km/h
60 23-12-2009 11:57:02 0.4 C 4.43 g/m*3 0.4 C 0 km/h
61 23-12-2009 12:09:02 0.4 C 4.43 g/m*3 0.4 C 0 km/h
62 23-12-2009 12:21:02 0.9 C 4.64 g/m*3 0.9 C 0 km/h
63 23-12-2009 12:33:02 1 C 4.62 g/m*3 1 C 0 km/h
64 23-12-2009 12:45:02 1 C 4.62 g/m*3 1 C 0 km/h
65 23-12-2009 12:57:02 1.1 C 4.65 g/m*3 1.1 C 0 km/h
66 23-12-2009 13:09:01 1.5 C 4.78 g/m*3 1.5 C 0 km/h
67 23-12-2009 13:21:02 2 C 4.89 g/m*3 2 C 0 km/h
68 23-12-2009 13:33:02 2.3 C 4.93 g/m*3 2.3 C 0 km/h
69 23-12-2009 13:45:02 2.5 C 5 g/m*3 2.5 C 0 km/h
70 23-12-2009 13:57:03 2.4 C 4.97 g/m*3 2.4 C 0 km/h
71 23-12-2009 14:09:02 1.6 C 4.65 g/m*3 1.6 C 0 km/h
72 23-12-2009 14:21:02 2 C 4.83 g/m*3 2 C 0 km/h
73 23-12-2009 14:33:02 2.3 C 4.93 g/m*3 2.3 C 0 km/h
74 23-12-2009 14:45:02 2.3 C 4.93 g/m*3 2.3 C 0 km/h
75 23-12-2009 14:57:02 1.8 C 4.77 g/m*3 1.8 C 0 km/h
Sensor: Nr:Datum:Temp:Abs-Feuchte:Windchill:Wind:
Aussen-T/F 76 23-12-2009 15:09:02 1.6 C 4.76 g/m*3 1.6 C 0 km/h
77 23-12-2009 15:21:01 1.3 C 4.66 g/m*3 1.3 C 0 km/h
78 23-12-2009 15:33:02 1.2 C 4.63 g/m*3 1.2 C 0 km/h
79 23-12-2009 15:45:02 1 C 4.62 g/m*3 1 C 0 km/h
80 23-12-2009 15:57:02 1.1 C 4.65 g/m*3 1.1 C 0 km/h
81 23-12-2009 16:09:02 0.8 C 4.61 g/m*3 0.8 C 0 km/h
82 23-12-2009 16:21:02 0.5 C 4.51 g/m*3 0.5 C 0 km/h
83 23-12-2009 16:33:02 0.4 C 4.48 g/m*3 0.4 C 0 km/h
84 23-12-2009 16:45:02 0.2 C 4.47 g/m*3 0.2 C 0 km/h
85 23-12-2009 16:57:02 0 C 4.41 g/m*3 0 C 0 km/h
86 23-12-2009 17:09:01 -0.2 C 4.4 g/m*3 -0.2 C 0 km/h
87 23-12-2009 17:21:02 -0.3 C 4.37 g/m*3 -0.3 C 0 km/h
88 23-12-2009 17:33:01 -0.3 C 4.41 g/m*3 -0.3 C 0 km/h
89 23-12-2009 17:45:01 -0.5 C 4.35 g/m*3 -0.5 C 0 km/h
90 23-12-2009 17:57:01 -0.5 C 4.35 g/m*3 -0.5 C 0 km/h
91 23-12-2009 18:09:02 -0.5 C 4.35 g/m*3 -0.5 C 0 km/h
92 23-12-2009 18:21:01 -0.6 C 4.32 g/m*3 -0.6 C 0 km/h
93 23-12-2009 18:33:02 -0.7 C 4.34 g/m*3 -0.7 C 0 km/h
94 23-12-2009 18:45:02 -0.7 C 4.34 g/m*3 -0.7 C 0 km/h
95 23-12-2009 18:57:02 -0.3 C 4.46 g/m*3 -0.3 C 0 km/h
96 23-12-2009 19:09:02 0 C 4.6 g/m*3 0 C 0 km/h
97 23-12-2009 19:21:02 0.2 C 4.67 g/m*3 0.2 C 0 km/h
98 23-12-2009 19:33:02 0.2 C 4.67 g/m*3 0.2 C 0 km/h
99 23-12-2009 19:45:02 0.3 C 4.7 g/m*3 0.3 C 0 km/h
100 23-12-2009 19:57:02 0.3 C 4.7 g/m*3 0.3 C 0 km/h
Sensor: Nr:Datum:Temp:Abs-Feuchte:Windchill:Wind:
Aussen-T/F 101 23-12-2009 20:09:02 0.5 C 4.76 g/m*3 0.5 C 0 km/h
102 23-12-2009 20:21:02 0.6 C 4.8 g/m*3 0.6 C 0 km/h
103 23-12-2009 20:33:02 0.7 C 4.83 g/m*3 0.7 C 0 km/h
104 23-12-2009 20:45:01 0.8 C 4.86 g/m*3 0.8 C 0 km/h
105 23-12-2009 20:57:01 1 C 4.93 g/m*3 1 C 0 km/h
106 23-12-2009 21:09:01 1 C 4.93 g/m*3 1 C 0 km/h
107 23-12-2009 21:21:01 1.1 C 4.96 g/m*3 1.1 C 0 km/h
108 23-12-2009 21:33:01 1.2 C 5 g/m*3 1.2 C 0 km/h
109 23-12-2009 21:45:01 1.2 C 5 g/m*3 1.2 C 0 km/h
110 23-12-2009 21:57:01 1.3 C 5.03 g/m*3 1.3 C 0 km/h
111 23-12-2009 22:09:01 1.3 C 5.03 g/m*3 1.3 C 0 km/h
112 23-12-2009 22:21:02 1.3 C 5.03 g/m*3 1.3 C 0 km/h
113 23-12-2009 22:33:01 1.3 C 5.03 g/m*3 1.3 C 0 km/h
114 23-12-2009 22:45:02 1.2 C 5 g/m*3 1.2 C 0 km/h
115 23-12-2009 22:57:02 1.1 C 4.96 g/m*3 1.1 C 0 km/h
116 23-12-2009 23:09:02 1.1 C 4.96 g/m*3 1.1 C 0 km/h
117 23-12-2009 23:21:02 1.1 C 4.96 g/m*3 1.1 C 0 km/h
118 23-12-2009 23:33:02 1.2 C 5 g/m*3 1.2 C 0 km/h
119 23-12-2009 23:45:02 1.2 C 5 g/m*3 1.2 C 0 km/h
120 23-12-2009 23:57:02 1.2 C 5 g/m*3 1.2 C 0 km/h
121 24-12-2009 00:09:01 1.2 C 5 g/m*3 1.2 C 0 km/h
122 24-12-2009 00:21:02 1.2 C 5 g/m*3 1.2 C 0 km/h
123 24-12-2009 00:34:03 1.1 C 4.96 g/m*3 1.1 C 0 km/h
124 24-12-2009 00:46:03 1.2 C 5 g/m*3 1.2 C 0 km/h
125 24-12-2009 00:58:03 1.2 C 5 g/m*3 1.2 C 0 km/h
Sensor: Nr:Datum:Temp:Abs-Feuchte:Windchill:Wind:
Aussen-T/F 126 24-12-2009 01:10:03 1.1 C 4.91 g/m*3 1.1 C 0 km/h
127 24-12-2009 01:22:03 1.1 C 4.91 g/m*3 1.1 C 0 km/h
128 24-12-2009 01:34:04 1.2 C 4.95 g/m*3 1.2 C 0 km/h
129 24-12-2009 01:46:04 1.2 C 4.95 g/m*3 1.2 C 0 km/h
130 24-12-2009 01:58:04 1.1 C 4.91 g/m*3 1.1 C 0 km/h
131 24-12-2009 02:10:04 1 C 4.88 g/m*3 1 C 0 km/h
132 24-12-2009 02:22:04 0.9 C 4.85 g/m*3 0.9 C 0 km/h
133 24-12-2009 02:34:04 1 C 4.88 g/m*3 1 C 0 km/h
134 24-12-2009 02:46:04 0.9 C 4.9 g/m*3 0.9 C 0 km/h
135 24-12-2009 02:58:04 0.6 C 4.75 g/m*3 0.6 C 0 km/h
136 24-12-2009 03:10:04 0.6 C 4.8 g/m*3 0.6 C 0 km/h
137 24-12-2009 03:22:04 0.7 C 4.83 g/m*3 0.7 C 0 km/h
138 24-12-2009 03:34:04 0.8 C 4.86 g/m*3 0.8 C 0 km/h
139 24-12-2009 03:46:04 0.9 C 4.9 g/m*3 0.9 C 0 km/h
140 24-12-2009 03:58:04 1 C 4.93 g/m*3 1 C 0 km/h
141 24-12-2009 04:10:04 1.1 C 4.96 g/m*3 1.1 C 0 km/h
142 24-12-2009 04:22:04 1.1 C 4.96 g/m*3 1.1 C 0 km/h
143 24-12-2009 04:34:04 1.2 C 5 g/m*3 1.2 C 0 km/h
144 24-12-2009 04:46:04 1.2 C 5 g/m*3 1.2 C 0 km/h
145 24-12-2009 04:58:04 1.3 C 5.03 g/m*3 1.3 C 0 km/h
146 24-12-2009 05:10:04 1.3 C 5.03 g/m*3 1.3 C 0 km/h
147 24-12-2009 05:22:04 1.4 C 5.07 g/m*3 1.4 C 0 km/h
148 24-12-2009 05:34:04 1.3 C 5.03 g/m*3 1.3 C 0 km/h
149 24-12-2009 05:46:05 1.3 C 5.03 g/m*3 1.3 C 0 km/h
150 24-12-2009 05:58:05 1.4 C 5.01 g/m*3 1.4 C 0 km/h
Sensor: Nr:Datum:Temp:Abs-Feuchte:Windchill:Wind:
Aussen-T/F 151 24-12-2009 06:10:05 1.3 C 4.98 g/m*3 1.3 C 0 km/h
152 24-12-2009 06:22:05 1.2 C 4.95 g/m*3 1.2 C 0 km/h
153 24-12-2009 06:34:05 1.3 C 4.98 g/m*3 1.3 C 0 km/h
154 24-12-2009 06:46:05 1.3 C 4.98 g/m*3 1.3 C 0 km/h
155 24-12-2009 06:58:05 1.3 C 4.98 g/m*3 1.3 C 0 km/h
156 24-12-2009 07:10:05 1.4 C 5.01 g/m*3 1.4 C 0 km/h
157 24-12-2009 07:22:05 1.4 C 5.01 g/m*3 1.4 C 0 km/h
158 24-12-2009 07:34:05 1.4 C 5.01 g/m*3 1.4 C 0 km/h
159 24-12-2009 07:46:05 1.4 C 5.01 g/m*3 1.4 C 0 km/h
160 24-12-2009 07:58:05 1.4 C 5.01 g/m*3 1.4 C 0 km/h
161 24-12-2009 08:10:05 1.5 C 5.05 g/m*3 1.5 C 0 km/h
162 24-12-2009 08:22:05 1.6 C 5.08 g/m*3 1.6 C 0 km/h
163 24-12-2009 08:34:05 1.6 C 5.08 g/m*3 1.6 C 0 km/h
164 24-12-2009 08:46:05 1.6 C 5.08 g/m*3 1.6 C 0 km/h
165 24-12-2009 08:58:05 1.7 C 5.12 g/m*3 1.7 C 0 km/h
166 24-12-2009 09:10:05 1.7 C 5.12 g/m*3 1.7 C 0 km/h
167 24-12-2009 09:22:05 1.7 C 5.12 g/m*3 1.7 C 0 km/h
168 24-12-2009 09:34:05 1.8 C 5.15 g/m*3 1.8 C 0 km/h
169 24-12-2009 09:46:06 1.9 C 5.19 g/m*3 1.9 C 0 km/h
170 24-12-2009 09:58:06 2 C 5.17 g/m*3 2 C 0 km/h
171 24-12-2009 10:10:06 2 C 5.17 g/m*3 2 C 0 km/h
172 24-12-2009 10:22:02 2.1 C 5.2 g/m*3 2.1 C 0 km/h
173 24-12-2009 10:34:02 2.2 C 5.24 g/m*3 2.2 C 0 km/h
174 24-12-2009 10:46:01 2.3 C 5.22 g/m*3 2.3 C 0 km/h
175 24-12-2009 10:58:01 2.6 C 5.32 g/m*3 2.6 C 0 km/h
Sensor: Nr:Datum:Temp:Abs-Feuchte:Windchill:Wind:
Aussen-T/F 176 24-12-2009 11:10:02 2.7 C 5.36 g/m*3 2.7 C 0 km/h
177 24-12-2009 11:22:01 2.8 C 5.34 g/m*3 2.8 C 0 km/h
178 24-12-2009 11:34:02 3 C 5.35 g/m*3 3 C 0 km/h
179 24-12-2009 11:46:01 3.2 C 5.42 g/m*3 3.2 C 0 km/h
180 24-12-2009 11:58:01 3.6 C 5.57 g/m*3 3.6 C 0 km/h
181 24-12-2009 12:10:02 3.7 C 5.55 g/m*3 3.7 C 0 km/h
182 24-12-2009 12:22:01 4.1 C 5.57 g/m*3 4.1 C 0 km/h
183 24-12-2009 12:34:02 4.4 C 5.62 g/m*3 4.4 C 0 km/h
184 24-12-2009 12:46:02 4.2 C 5.22 g/m*3 4.2 C 0 km/h
185 24-12-2009 12:58:02 4.1 C 5.06 g/m*3 4.1 C 0 km/h
186 24-12-2009 13:10:02 4 C 5.02 g/m*3 4 C 0 km/h
187 24-12-2009 13:22:01 4 C 5.02 g/m*3 4 C 0 km/h
188 24-12-2009 13:34:02 4.2 C 5.09 g/m*3 4.2 C 0 km/h
189 24-12-2009 13:46:01 4.3 C 5.06 g/m*3 4.3 C 0 km/h
190 24-12-2009 13:58:01 4.4 C 5.03 g/m*3 4.4 C 0 km/h
191 24-12-2009 14:10:02 4.3 C 4.99 g/m*3 4.3 C 0 km/h
192 24-12-2009 14:22:02 4.1 C 4.93 g/m*3 4.1 C 0 km/h
193 24-12-2009 14:34:02 4.1 C 4.99 g/m*3 4.1 C 0 km/h
194 24-12-2009 14:46:01 4.2 C 5.09 g/m*3 4.2 C 0 km/h
195 24-12-2009 14:58:01 4 C 5.02 g/m*3 4 C 0 km/h
196 24-12-2009 15:10:02 3.9 C 5.05 g/m*3 3.9 C 0 km/h
197 24-12-2009 15:22:02 3.8 C 5.08 g/m*3 3.8 C 0 km/h
198 24-12-2009 15:34:02 3.6 C 5.08 g/m*3 3.6 C 0 km/h
199 24-12-2009 15:46:02 3.5 C 5.1 g/m*3 3.5 C 0 km/h
200 24-12-2009 15:58:02 3.4 C 5.07 g/m*3 3.4 C 0 km/h
Sensor: Nr:Datum:Temp:Abs-Feuchte:Windchill:Wind:
Aussen-T/F 201 24-12-2009 16:10:02 3.2 C 5.06 g/m*3 3.2 C 0 km/h
202 24-12-2009 16:22:02 3 C 4.99 g/m*3 3 C 0 km/h
203 24-12-2009 16:34:01 2.8 C 5.04 g/m*3 2.8 C 0 km/h
204 24-12-2009 16:46:02 2.7 C 5.07 g/m*3 2.7 C 0 km/h
205 24-12-2009 16:58:02 2.5 C 5 g/m*3 2.5 C 0 km/h
206 24-12-2009 17:10:01 2.5 C 5.06 g/m*3 2.5 C 0 km/h
207 24-12-2009 17:22:02 2.5 C 5.12 g/m*3 2.5 C 0 km/h
208 24-12-2009 17:34:01 2.6 C 5.15 g/m*3 2.6 C 0 km/h
209 24-12-2009 17:46:02 2.6 C 5.21 g/m*3 2.6 C 0 km/h
210 24-12-2009 17:58:02 2.6 C 5.21 g/m*3 2.6 C 0 km/h
211 24-12-2009 18:10:01 2.6 C 5.21 g/m*3 2.6 C 0 km/h
212 24-12-2009 18:22:01 2.6 C 5.27 g/m*3 2.6 C 0 km/h
213 24-12-2009 18:34:01 2.6 C 5.27 g/m*3 2.6 C 0 km/h
214 24-12-2009 18:46:02 2.7 C 5.3 g/m*3 2.7 C 0 km/h
215 24-12-2009 18:58:02 2.7 C 5.3 g/m*3 2.7 C 0 km/h
216 24-12-2009 19:10:02 2.7 C 5.36 g/m*3 2.7 C 0 km/h
217 24-12-2009 19:22:02 2.7 C 5.36 g/m*3 2.7 C 0 km/h
218 24-12-2009 19:34:02 2.7 C 5.36 g/m*3 2.7 C 0 km/h
219 24-12-2009 19:46:02 2.7 C 5.36 g/m*3 2.7 C 0 km/h
220 24-12-2009 19:58:02 2.7 C 5.36 g/m*3 2.7 C 0 km/h
221 24-12-2009 20:10:01 2.7 C 5.36 g/m*3 2.7 C 0 km/h
222 24-12-2009 20:22:01 2.7 C 5.36 g/m*3 2.7 C 0 km/h
223 24-12-2009 20:34:02 2.7 C 5.36 g/m*3 2.7 C 0 km/h
224 24-12-2009 20:46:02 2.7 C 5.36 g/m*3 2.7 C 0 km/h
225 24-12-2009 20:58:02 2.7 C 5.36 g/m*3 2.7 C 0 km/h
Sensor: Nr:Datum:Temp:Abs-Feuchte:Windchill:Wind:
Aussen-T/F 226 24-12-2009 21:10:02 2.7 C 5.36 g/m*3 2.7 C 0 km/h
227 24-12-2009 21:22:02 2.6 C 5.32 g/m*3 2.6 C 0 km/h
228 24-12-2009 21:34:02 2.6 C 5.32 g/m*3 2.6 C 0 km/h
229 24-12-2009 21:46:01 2.6 C 5.32 g/m*3 2.6 C 0 km/h
230 24-12-2009 21:58:01 2.6 C 5.32 g/m*3 2.6 C 0 km/h
231 24-12-2009 22:10:02 2.6 C 5.38 g/m*3 2.6 C 0 km/h
232 24-12-2009 22:22:01 2.6 C 5.38 g/m*3 2.6 C 0 km/h
233 24-12-2009 22:34:02 2.7 C 5.42 g/m*3 2.7 C 0 km/h
234 24-12-2009 22:47:01 2.7 C 5.42 g/m*3 2.7 C 0 km/h
235 24-12-2009 22:59:01 2.7 C 5.48 g/m*3 2.7 C 0 km/h
236 24-12-2009 23:11:01 2.7 C 5.48 g/m*3 2.7 C 0 km/h
237 24-12-2009 23:23:01 2.8 C 5.51 g/m*3 2.8 C 0 km/h
238 24-12-2009 23:35:01 2.8 C 5.51 g/m*3 2.8 C 0 km/h
239 24-12-2009 23:47:01 2.9 C 5.61 g/m*3 2.9 C 0 km/h
240 24-12-2009 23:59:01 2.9 C 5.61 g/m*3 2.9 C 0 km/h
241 25-12-2009 00:11:01 3 C 5.59 g/m*3 3 C 0 km/h
242 25-12-2009 00:23:02 3 C 5.59 g/m*3 3 C 0 km/h
243 25-12-2009 00:35:02 3 C 5.65 g/m*3 3 C 0 km/h
244 25-12-2009 00:47:02 3.1 C 5.69 g/m*3 3.1 C 0 km/h
245 25-12-2009 00:59:02 3.1 C 5.69 g/m*3 3.1 C 0 km/h
246 25-12-2009 01:11:02 3.1 C 5.69 g/m*3 3.1 C 0 km/h
247 25-12-2009 01:23:02 3 C 5.65 g/m*3 3 C 0 km/h
248 25-12-2009 01:35:02 3 C 5.65 g/m*3 3 C 0 km/h
249 25-12-2009 01:47:02 3.1 C 5.69 g/m*3 3.1 C 0 km/h
250 25-12-2009 01:59:02 3.1 C 5.69 g/m*3 3.1 C 0 km/h
Sensor: Nr:Datum:Temp:Abs-Feuchte:Windchill:Wind:
Aussen-T/F 251 25-12-2009 02:11:02 3.2 C 5.72 g/m*3 3.2 C 0 km/h
252 25-12-2009 02:23:02 3.2 C 5.72 g/m*3 3.2 C 0 km/h
253 25-12-2009 02:35:02 3.1 C 5.69 g/m*3 3.1 C 0 km/h
254 25-12-2009 02:47:02 3.1 C 5.69 g/m*3 3.1 C 0 km/h
255 25-12-2009 02:59:02 3.1 C 5.69 g/m*3 3.1 C 0 km/h
256 25-12-2009 03:11:02 3.1 C 5.69 g/m*3 3.1 C 0 km/h
257 25-12-2009 03:23:02 3.1 C 5.69 g/m*3 3.1 C 0 km/h
258 25-12-2009 03:35:02 3.1 C 5.69 g/m*3 3.1 C 0 km/h
259 25-12-2009 03:47:02 3.2 C 5.72 g/m*3 3.2 C 0 km/h
260 25-12-2009 03:59:02 3.2 C 5.72 g/m*3 3.2 C 0 km/h
261 25-12-2009 04:11:02 3.2 C 5.72 g/m*3 3.2 C 0 km/h
262 25-12-2009 04:23:02 3.1 C 5.69 g/m*3 3.1 C 0 km/h
263 25-12-2009 04:35:03 3.1 C 5.69 g/m*3 3.1 C 0 km/h
264 25-12-2009 04:47:03 3.2 C 5.72 g/m*3 3.2 C 0 km/h
265 25-12-2009 04:59:03 3.2 C 5.72 g/m*3 3.2 C 0 km/h
266 25-12-2009 05:11:03 3.2 C 5.72 g/m*3 3.2 C 0 km/h
267 25-12-2009 05:23:03 3.3 C 5.76 g/m*3 3.3 C 0 km/h
268 25-12-2009 05:35:03 3.4 C 5.8 g/m*3 3.4 C 0 km/h
269 25-12-2009 05:47:03 3.4 C 5.8 g/m*3 3.4 C 0 km/h
270 25-12-2009 05:59:03 3.5 C 5.84 g/m*3 3.5 C 0 km/h
271 25-12-2009 06:11:03 3.6 C 5.88 g/m*3 3.6 C 0 km/h
272 25-12-2009 06:23:03 3.6 C 5.88 g/m*3 3.6 C 0 km/h
273 25-12-2009 06:35:03 3.6 C 5.88 g/m*3 3.6 C 0 km/h
274 25-12-2009 06:47:03 3.5 C 5.84 g/m*3 3.5 C 0 km/h
275 25-12-2009 06:59:03 6.8 C 7.27 g/m*3 6.8 C 0 km/h
Sensor: Nr:Datum:Temp:Abs-Feuchte:Windchill:Wind:
Aussen-T/F 276 25-12-2009 07:11:03 7.1 C 7.41 g/m*3 7.1 C 0 km/h
277 25-12-2009 07:23:03 7.1 C 7.41 g/m*3 7.1 C 0 km/h
278 25-12-2009 07:35:03 6.8 C 7.11 g/m*3 6.8 C 0 km/h
279 25-12-2009 07:47:03 6.4 C 6.56 g/m*3 6.4 C 0 km/h
280 25-12-2009 07:59:03 5.9 C 6.06 g/m*3 5.9 C 0 km/h
281 25-12-2009 08:11:03 5.6 C 5.87 g/m*3 5.6 C 0 km/h
282 25-12-2009 08:23:03 5.1 C 5.68 g/m*3 5.1 C 0 km/h
283 25-12-2009 08:35:03 4.8 C 5.5 g/m*3 4.8 C 0 km/h
284 25-12-2009 08:47:04 4.4 C 5.09 g/m*3 4.4 C 0 km/h
285 25-12-2009 08:59:04 4.2 C 4.77 g/m*3 4.2 C 0 km/h
286 25-12-2009 09:11:04 4.1 C 4.67 g/m*3 4.1 C 0 km/h
287 25-12-2009 09:23:04 4 C 4.58 g/m*3 4 C 0 km/h
288 25-12-2009 09:35:04 4 C 4.58 g/m*3 4 C 0 km/h
289 25-12-2009 09:47:01 4 C 4.64 g/m*3 4 C 0 km/h
290 25-12-2009 09:59:01 3.8 C 4.64 g/m*3 3.8 C 0 km/h
291 25-12-2009 10:11:02 4 C 4.64 g/m*3 4 C 0 km/h
292 25-12-2009 10:23:01 4.1 C 4.74 g/m*3 4.1 C 0 km/h
293 25-12-2009 10:35:02 4.2 C 4.77 g/m*3 4.2 C 0 km/h
294 25-12-2009 10:47:02 4.3 C 4.8 g/m*3 4.3 C 0 km/h
295 25-12-2009 10:59:02 4.1 C 4.67 g/m*3 4.1 C 0 km/h
296 25-12-2009 11:11:02 4.1 C 4.67 g/m*3 4.1 C 0 km/h
297 25-12-2009 11:23:02 4.5 C 4.73 g/m*3 4.5 C 0 km/h
298 25-12-2009 11:35:02 4.7 C 4.73 g/m*3 4.7 C 0 km/h
299 25-12-2009 11:47:02 5 C 4.69 g/m*3 5 C 0 km/h
300 25-12-2009 11:59:02 5.2 C 4.68 g/m*3 5.2 C 0 km/h
Sensor: Nr:Datum:Temp:Abs-Feuchte:Windchill:Wind:
Aussen-T/F 301 25-12-2009 12:11:03 5.2 C 4.75 g/m*3 5.2 C 0 km/h
302 25-12-2009 12:23:02 5.3 C 4.78 g/m*3 5.3 C 0 km/h
303 25-12-2009 12:35:03 5.5 C 4.78 g/m*3 5.5 C 0 km/h
304 25-12-2009 12:47:02 5.7 C 4.84 g/m*3 5.7 C 0 km/h
305 25-12-2009 12:59:02 5.9 C 4.83 g/m*3 5.9 C 0 km/h
306 25-12-2009 13:11:02 6 C 4.72 g/m*3 6 C 0 km/h
307 25-12-2009 13:23:01 6 C 4.65 g/m*3 6 C 0 km/h
308 25-12-2009 13:35:02 6.2 C 4.71 g/m*3 6.2 C 0 km/h
309 25-12-2009 13:47:02 6.3 C 4.66 g/m*3 6.3 C 0 km/h
310 25-12-2009 13:59:02 6.2 C 4.56 g/m*3 6.2 C 0 km/h
311 25-12-2009 14:11:02 6.2 C 4.56 g/m*3 6.2 C 0 km/h
312 25-12-2009 14:23:02 6 C 4.5 g/m*3 6 C 0 km/h
313 25-12-2009 14:35:02 5.9 C 4.61 g/m*3 5.9 C 0 km/h
314 25-12-2009 14:47:02 5.8 C 4.58 g/m*3 5.8 C 0 km/h
315 25-12-2009 14:59:03 5.8 C 4.66 g/m*3 5.8 C 0 km/h
316 25-12-2009 15:11:01 5.7 C 4.7 g/m*3 5.7 C 0 km/h
317 25-12-2009 15:23:02 5.7 C 4.77 g/m*3 5.7 C 0 km/h
318 25-12-2009 15:35:02 5.6 C 4.88 g/m*3 5.6 C 0 km/h
319 25-12-2009 15:47:02 5.4 C 4.95 g/m*3 5.4 C 0 km/h
320 25-12-2009 15:59:02 5.4 C 4.95 g/m*3 5.4 C 0 km/h
321 25-12-2009 16:11:02 5.4 C 4.88 g/m*3 5.4 C 0 km/h
322 25-12-2009 16:23:02 5.1 C 4.92 g/m*3 5.1 C 0 km/h
323 25-12-2009 16:35:03 5 C 4.89 g/m*3 5 C 0 km/h
324 25-12-2009 16:47:02 5 C 4.89 g/m*3 5 C 0 km/h
325 25-12-2009 16:59:02 4.8 C 4.9 g/m*3 4.8 C 0 km/h
Sensor: Nr:Datum:Temp:Abs-Feuchte:Windchill:Wind:
Aussen-T/F 326 25-12-2009 17:11:02 4.7 C 4.93 g/m*3 4.7 C 0 km/h
327 25-12-2009 17:23:01 4.9 C 4.93 g/m*3 4.9 C 0 km/h
328 25-12-2009 17:35:02 5 C 4.76 g/m*3 5 C 0 km/h
329 25-12-2009 17:47:02 5 C 4.69 g/m*3 5 C 0 km/h
330 25-12-2009 17:59:02 4.7 C 4.66 g/m*3 4.7 C 0 km/h
331 25-12-2009 18:11:02 4.6 C 4.63 g/m*3 4.6 C 0 km/h
332 25-12-2009 18:23:02 4.7 C 4.66 g/m*3 4.7 C 0 km/h
333 25-12-2009 18:35:02 4.7 C 4.6 g/m*3 4.7 C 0 km/h
334 25-12-2009 18:47:02 4.7 C 4.6 g/m*3 4.7 C 0 km/h
335 25-12-2009 18:59:02 4.7 C 4.53 g/m*3 4.7 C 0 km/h
336 25-12-2009 19:11:02 4.7 C 4.46 g/m*3 4.7 C 0 km/h
337 25-12-2009 19:23:02 4.5 C 4.47 g/m*3 4.5 C 0 km/h
338 25-12-2009 19:35:02 4.2 C 4.45 g/m*3 4.2 C 0 km/h
339 25-12-2009 19:47:02 4.2 C 4.38 g/m*3 4.2 C 0 km/h
340 25-12-2009 19:59:02 4.3 C 4.28 g/m*3 4.3 C 0 km/h
341 25-12-2009 20:11:02 4.6 C 4.04 g/m*3 4.6 C 0 km/h
342 25-12-2009 20:23:02 4.5 C 3.88 g/m*3 4.5 C 0 km/h
343 25-12-2009 20:35:02 4.5 C 3.88 g/m*3 4.5 C 0 km/h
344 25-12-2009 20:47:01 4.3 C 3.89 g/m*3 4.3 C 0 km/h
345 25-12-2009 20:59:01 4.1 C 4.03 g/m*3 4.1 C 0 km/h
346 25-12-2009 21:11:01 3.8 C 4.27 g/m*3 3.8 C 0 km/h
347 25-12-2009 21:23:02 3.6 C 4.39 g/m*3 3.6 C 0 km/h
348 25-12-2009 21:35:01 3.5 C 4.43 g/m*3 3.5 C 0 km/h
349 25-12-2009 21:47:03 3.4 C 4.46 g/m*3 3.4 C 0 km/h
350 25-12-2009 21:59:03 3.7 C 4.55 g/m*3 3.7 C 0 km/h
Sensor: Nr:Datum:Temp:Abs-Feuchte:Windchill:Wind:
Aussen-T/F 351 25-12-2009 22:11:03 3.9 C 4.48 g/m*3 3.9 C 0 km/h
352 25-12-2009 22:23:02 4 C 4.32 g/m*3 4 C 0 km/h
353 25-12-2009 22:35:03 3.8 C 4.33 g/m*3 3.8 C 0 km/h
354 25-12-2009 22:48:03 3.8 C 4.33 g/m*3 3.8 C 0 km/h
355 25-12-2009 23:00:03 3.8 C 4.27 g/m*3 3.8 C 0 km/h
356 25-12-2009 23:12:04 3.7 C 4.24 g/m*3 3.7 C 0 km/h
357 25-12-2009 23:24:04 3.8 C 4.27 g/m*3 3.8 C 0 km/h
358 25-12-2009 23:36:04 3.8 C 4.27 g/m*3 3.8 C 0 km/h
359 25-12-2009 23:48:04 3.8 C 4.27 g/m*3 3.8 C 0 km/h
360 26-12-2009 00:00:04 3.8 C 4.27 g/m*3 3.8 C 0 km/h
361 26-12-2009 00:12:04 3.8 C 4.14 g/m*3 3.8 C 0 km/h
362 26-12-2009 00:24:04 3.5 C 4 g/m*3 3.5 C 0 km/h
363 26-12-2009 00:36:04 3.4 C 3.97 g/m*3 3.4 C 0 km/h
364 26-12-2009 00:48:04 3 C 3.92 g/m*3 3 C 0 km/h
365 26-12-2009 01:00:04 2.6 C 4.05 g/m*3 2.6 C 0 km/h
366 26-12-2009 01:12:04 2.5 C 4.08 g/m*3 2.5 C 0 km/h
367 26-12-2009 01:24:04 2.5 C 4.08 g/m*3 2.5 C 0 km/h
368 26-12-2009 01:36:04 2.8 C 4.11 g/m*3 2.8 C 0 km/h
369 26-12-2009 01:48:04 2.7 C 4.08 g/m*3 2.7 C 0 km/h
370 26-12-2009 02:00:04 2.7 C 4.14 g/m*3 2.7 C 0 km/h
371 26-12-2009 02:12:04 2.6 C 4.17 g/m*3 2.6 C 0 km/h
372 26-12-2009 02:24:04 2.8 C 4.34 g/m*3 2.8 C 0 km/h
373 26-12-2009 02:36:04 2.8 C 4.34 g/m*3 2.8 C 0 km/h
374 26-12-2009 02:48:04 2.7 C 4.31 g/m*3 2.7 C 0 km/h
375 26-12-2009 03:00:04 2.7 C 4.37 g/m*3 2.7 C 0 km/h
Sensor: Nr:Datum:Temp:Abs-Feuchte:Windchill:Wind:
Aussen-T/F 376 26-12-2009 03:12:05 2.6 C 4.4 g/m*3 2.6 C 0 km/h
377 26-12-2009 03:24:05 2.5 C 4.43 g/m*3 2.5 C 0 km/h
378 26-12-2009 03:36:05 2.4 C 4.45 g/m*3 2.4 C 0 km/h
379 26-12-2009 03:48:05 2.6 C 4.51 g/m*3 2.6 C 0 km/h
380 26-12-2009 04:00:05 2.7 C 4.54 g/m*3 2.7 C 0 km/h
381 26-12-2009 04:12:05 2.7 C 4.49 g/m*3 2.7 C 0 km/h
382 26-12-2009 04:24:05 2.5 C 4.48 g/m*3 2.5 C 0 km/h
383 26-12-2009 04:36:05 2.5 C 4.48 g/m*3 2.5 C 0 km/h
384 26-12-2009 04:48:05 2.7 C 4.6 g/m*3 2.7 C 0 km/h
385 26-12-2009 05:00:05 2.7 C 4.6 g/m*3 2.7 C 0 km/h
386 26-12-2009 05:12:05 2.8 C 4.58 g/m*3 2.8 C 0 km/h
387 26-12-2009 05:24:05 2.8 C 4.52 g/m*3 2.8 C 0 km/h
388 26-12-2009 05:36:05 2.5 C 4.43 g/m*3 2.5 C 0 km/h
389 26-12-2009 05:48:05 2.7 C 4.54 g/m*3 2.7 C 0 km/h
390 26-12-2009 06:00:05 2.7 C 4.54 g/m*3 2.7 C 0 km/h
391 26-12-2009 06:12:05 2.8 C 4.52 g/m*3 2.8 C 0 km/h
392 26-12-2009 06:24:05 2.8 C 4.52 g/m*3 2.8 C 0 km/h
393 26-12-2009 06:36:05 2.9 C 4.55 g/m*3 2.9 C 0 km/h
394 26-12-2009 06:48:05 2.8 C 4.52 g/m*3 2.8 C 0 km/h
395 26-12-2009 07:00:05 2.7 C 4.54 g/m*3 2.7 C 0 km/h
396 26-12-2009 07:12:05 2.6 C 4.57 g/m*3 2.6 C 0 km/h
397 26-12-2009 07:24:05 2.6 C 4.57 g/m*3 2.6 C 0 km/h
398 26-12-2009 07:36:05 2.5 C 4.6 g/m*3 2.5 C 0 km/h
399 26-12-2009 07:48:06 2.2 C 4.51 g/m*3 2.2 C 0 km/h
400 26-12-2009 08:00:06 2 C 4.5 g/m*3 2 C 0 km/h
Sensor: Nr:Datum:Temp:Abs-Feuchte:Windchill:Wind:
Aussen-T/F 401 26-12-2009 08:12:06 1.7 C 4.46 g/m*3 1.7 C 0 km/h
402 26-12-2009 08:24:06 1.9 C 4.58 g/m*3 1.9 C 0 km/h
403 26-12-2009 08:36:06 1.7 C 4.52 g/m*3 1.7 C 0 km/h
404 26-12-2009 08:48:06 1.6 C 4.54 g/m*3 1.6 C 0 km/h
405 26-12-2009 09:00:06 1.7 C 4.57 g/m*3 1.7 C 0 km/h
406 26-12-2009 09:12:06 1.8 C 4.6 g/m*3 1.8 C 0 km/h
407 26-12-2009 09:24:06 2.1 C 4.59 g/m*3 2.1 C 0 km/h
408 26-12-2009 09:36:03 2.3 C 4.59 g/m*3 2.3 C 0 km/h
409 26-12-2009 09:48:02 2.7 C 4.6 g/m*3 2.7 C 0 km/h
410 26-12-2009 10:00:02 3 C 4.58 g/m*3 3 C 0 km/h
411 26-12-2009 10:12:01 3.2 C 4.52 g/m*3 3.2 C 0 km/h
412 26-12-2009 10:24:02 3.3 C 4.55 g/m*3 3.3 C 0 km/h
413 26-12-2009 10:36:02 3.4 C 4.58 g/m*3 3.4 C 0 km/h
414 26-12-2009 10:48:02 3.5 C 4.61 g/m*3 3.5 C 0 km/h
415 26-12-2009 11:00:02 3.8 C 4.71 g/m*3 3.8 C 0 km/h
416 26-12-2009 11:12:02 3.9 C 4.74 g/m*3 3.9 C 0 km/h
417 26-12-2009 11:24:02 3.6 C 4.64 g/m*3 3.6 C 0 km/h
418 26-12-2009 11:36:02 3.7 C 4.74 g/m*3 3.7 C 0 km/h
419 26-12-2009 11:48:02 4 C 4.83 g/m*3 4 C 0 km/h
420 26-12-2009 12:00:02 4.1 C 4.8 g/m*3 4.1 C 0 km/h
421 26-12-2009 12:12:02 4.1 C 4.74 g/m*3 4.1 C 0 km/h
422 26-12-2009 12:24:01 3.8 C 4.71 g/m*3 3.8 C 0 km/h
423 26-12-2009 12:36:02 3.7 C 4.67 g/m*3 3.7 C 0 km/h
424 26-12-2009 12:48:02 3.6 C 4.64 g/m*3 3.6 C 0 km/h
425 26-12-2009 13:00:02 3.6 C 4.7 g/m*3 3.6 C 0 km/h
Sensor: Nr:Datum:Temp:Abs-Feuchte:Windchill:Wind:
Aussen-T/F 426 26-12-2009 13:12:02 3.9 C 4.74 g/m*3 3.9 C 0 km/h
427 26-12-2009 13:24:01 3.9 C 4.74 g/m*3 3.9 C 0 km/h
428 26-12-2009 13:36:02 4 C 4.7 g/m*3 4 C 0 km/h
429 26-12-2009 13:48:02 4.1 C 4.67 g/m*3 4.1 C 0 km/h
430 26-12-2009 14:00:02 4 C 4.64 g/m*3 4 C 0 km/h
431 26-12-2009 14:12:02 3.9 C 4.74 g/m*3 3.9 C 0 km/h
432 26-12-2009 14:24:01 4.1 C 4.74 g/m*3 4.1 C 0 km/h
433 26-12-2009 14:36:02 4.2 C 4.7 g/m*3 4.2 C 0 km/h
434 26-12-2009 14:48:02 4.1 C 4.67 g/m*3 4.1 C 0 km/h
435 26-12-2009 15:00:02 3.7 C 4.67 g/m*3 3.7 C 0 km/h
436 26-12-2009 15:12:02 3.5 C 4.67 g/m*3 3.5 C 0 km/h
437 26-12-2009 15:24:02 3.3 C 4.67 g/m*3 3.3 C 0 km/h
438 26-12-2009 15:36:02 3.1 C 4.67 g/m*3 3.1 C 0 km/h
439 26-12-2009 15:48:01 3 C 4.7 g/m*3 3 C 0 km/h
440 26-12-2009 16:00:01 2.8 C 4.75 g/m*3 2.8 C 0 km/h
441 26-12-2009 16:12:02 2.7 C 4.72 g/m*3 2.7 C 0 km/h
442 26-12-2009 16:24:02 2.7 C 4.72 g/m*3 2.7 C 0 km/h
443 26-12-2009 16:36:02 2.5 C 4.66 g/m*3 2.5 C 0 km/h
444 26-12-2009 16:48:02 2.2 C 4.56 g/m*3 2.2 C 0 km/h
445 26-12-2009 17:00:02 1.6 C 4.43 g/m*3 1.6 C 0 km/h
446 26-12-2009 17:12:02 1.4 C 4.48 g/m*3 1.4 C 0 km/h
447 26-12-2009 17:24:02 1.4 C 4.53 g/m*3 1.4 C 0 km/h
448 26-12-2009 17:36:01 1.7 C 4.68 g/m*3 1.7 C 0 km/h
449 26-12-2009 17:48:02 1.6 C 4.54 g/m*3 1.6 C 0 km/h
450 26-12-2009 18:00:02 1 C 4.36 g/m*3 1 C 0 km/h
Sensor: Nr:Datum:Temp:Abs-Feuchte:Windchill:Wind:
Aussen-T/F 451 26-12-2009 18:12:02 0.6 C 4.29 g/m*3 0.6 C 0 km/h
452 26-12-2009 18:24:02 0.5 C 4.26 g/m*3 0.5 C 0 km/h
453 26-12-2009 18:36:02 0.3 C 4.25 g/m*3 0.3 C 0 km/h
454 26-12-2009 18:48:02 0.3 C 4.3 g/m*3 0.3 C 0 km/h
455 26-12-2009 19:00:02 0.1 C 4.24 g/m*3 0.1 C 0 km/h
456 26-12-2009 19:12:02 0.1 C 4.29 g/m*3 0.1 C 0 km/h
457 26-12-2009 19:24:02 0.1 C 4.29 g/m*3 0.1 C 0 km/h
458 26-12-2009 19:36:02 -0.1 C 4.23 g/m*3 -0.1 C 0 km/h
459 26-12-2009 19:48:02 -0.3 C 4.22 g/m*3 -0.3 C 0 km/h
460 26-12-2009 20:00:02 -0.5 C 4.17 g/m*3 -0.5 C 0 km/h
461 26-12-2009 20:12:02 -0.7 C 4.11 g/m*3 -0.7 C 0 km/h
462 26-12-2009 20:24:02 -0.5 C 4.17 g/m*3 -0.5 C 0 km/h
463 26-12-2009 20:36:02 -0.4 C 4.24 g/m*3 -0.4 C 0 km/h
464 26-12-2009 20:48:01 -0.7 C 4.15 g/m*3 -0.7 C 0 km/h
465 26-12-2009 21:00:01 -0.8 C 4.17 g/m*3 -0.8 C 0 km/h
466 26-12-2009 21:12:02 -0.8 C 4.17 g/m*3 -0.8 C 0 km/h
467 26-12-2009 21:24:01 -0.8 C 4.17 g/m*3 -0.8 C 0 km/h
468 26-12-2009 21:36:01 -0.8 C 4.17 g/m*3 -0.8 C 0 km/h
469 26-12-2009 21:48:01 -0.8 C 4.17 g/m*3 -0.8 C 0 km/h
470 26-12-2009 22:00:01 -0.9 C 4.14 g/m*3 -0.9 C 0 km/h
471 26-12-2009 22:12:01 -0.9 C 4.19 g/m*3 -0.9 C 0 km/h
472 26-12-2009 22:24:01 -1 C 4.16 g/m*3 -1 C 0 km/h
473 26-12-2009 22:36:02 -1.1 C 4.09 g/m*3 -1.1 C 0 km/h
474 26-12-2009 22:49:03 -1.2 C 4.06 g/m*3 -1.2 C 0 km/h
475 26-12-2009 23:01:03 -1.1 C 4.13 g/m*3 -1.1 C 0 km/h
Sensor: Nr:Datum:Temp:Abs-Feuchte:Windchill:Wind:
Aussen-T/F 476 26-12-2009 23:13:03 -1.3 C 4.07 g/m*3 -1.3 C 0 km/h
477 26-12-2009 23:25:03 -1.2 C 4.1 g/m*3 -1.2 C 0 km/h
478 26-12-2009 23:37:03 -1.4 C 4.04 g/m*3 -1.4 C 0 km/h
479 26-12-2009 23:49:03 -1.6 C 3.99 g/m*3 -1.6 C 0 km/h
480 27-12-2009 00:01:03 -1.6 C 3.99 g/m*3 -1.6 C 0 km/h
481 27-12-2009 00:13:03 -1.8 C 3.93 g/m*3 -1.8 C 0 km/h
482 27-12-2009 00:25:03 -1.8 C 3.93 g/m*3 -1.8 C 0 km/h
483 27-12-2009 00:37:03 -1.8 C 3.93 g/m*3 -1.8 C 0 km/h
484 27-12-2009 00:49:03 -1.9 C 3.91 g/m*3 -1.9 C 0 km/h
485 27-12-2009 01:01:03 -1.8 C 3.93 g/m*3 -1.8 C 0 km/h
486 27-12-2009 01:13:03 -1.9 C 3.91 g/m*3 -1.9 C 0 km/h
487 27-12-2009 01:25:03 -2 C 3.88 g/m*3 -2 C 0 km/h
488 27-12-2009 01:37:03 -2.3 C 3.8 g/m*3 -2.3 C 0 km/h
489 27-12-2009 01:49:04 -2.3 C 3.8 g/m*3 -2.3 C 0 km/h
490 27-12-2009 02:01:04 -2.3 C 3.8 g/m*3 -2.3 C 0 km/h
491 27-12-2009 02:13:04 -2.2 C 3.87 g/m*3 -2.2 C 0 km/h
492 27-12-2009 02:25:04 -2.1 C 3.89 g/m*3 -2.1 C 0 km/h
493 27-12-2009 02:37:04 -2 C 3.92 g/m*3 -2 C 0 km/h
494 27-12-2009 02:49:04 -1.9 C 3.95 g/m*3 -1.9 C 0 km/h
495 27-12-2009 03:01:04 -2.1 C 3.89 g/m*3 -2.1 C 0 km/h
496 27-12-2009 03:13:04 -2.2 C 3.87 g/m*3 -2.2 C 0 km/h
497 27-12-2009 03:25:04 -2.1 C 3.89 g/m*3 -2.1 C 0 km/h
498 27-12-2009 03:37:04 -2.3 C 3.84 g/m*3 -2.3 C 0 km/h
499 27-12-2009 03:49:04 -2.5 C 3.78 g/m*3 -2.5 C 0 km/h
500 27-12-2009 04:01:04 -2.6 C 3.76 g/m*3 -2.6 C 0 km/h
Sensor: Nr:Datum:Temp:Abs-Feuchte:Windchill:Wind:
Aussen-T/F 501 27-12-2009 04:13:04 -2.7 C 3.73 g/m*3 -2.7 C 0 km/h
502 27-12-2009 04:25:04 -2.7 C 3.73 g/m*3 -2.7 C 0 km/h
503 27-12-2009 04:37:04 -2.8 C 3.71 g/m*3 -2.8 C 0 km/h
504 27-12-2009 04:49:04 -2.8 C 3.71 g/m*3 -2.8 C 0 km/h
505 27-12-2009 05:01:04 -2.7 C 3.73 g/m*3 -2.7 C 0 km/h
506 27-12-2009 05:13:04 -2.6 C 3.8 g/m*3 -2.6 C 0 km/h
507 27-12-2009 05:25:04 -2.8 C 3.75 g/m*3 -2.8 C 0 km/h
508 27-12-2009 05:37:04 -2.9 C 3.72 g/m*3 -2.9 C 0 km/h
509 27-12-2009 05:49:04 -2.8 C 3.75 g/m*3 -2.8 C 0 km/h
510 27-12-2009 06:01:04 -2.8 C 3.75 g/m*3 -2.8 C 0 km/h
511 27-12-2009 06:13:04 -2.9 C 3.72 g/m*3 -2.9 C 0 km/h
512 27-12-2009 06:25:05 -2.9 C 3.72 g/m*3 -2.9 C 0 km/h
513 27-12-2009 06:37:05 -3 C 3.69 g/m*3 -3 C 0 km/h
514 27-12-2009 06:49:05 -3.1 C 3.67 g/m*3 -3.1 C 0 km/h
515 27-12-2009 07:01:05 -3.1 C 3.67 g/m*3 -3.1 C 0 km/h
516 27-12-2009 07:13:05 -3.2 C 3.64 g/m*3 -3.2 C 0 km/h
517 27-12-2009 07:25:05 -3.1 C 3.67 g/m*3 -3.1 C 0 km/h
518 27-12-2009 07:37:05 -3.2 C 3.64 g/m*3 -3.2 C 0 km/h
519 27-12-2009 07:49:05 -3.2 C 3.64 g/m*3 -3.2 C 0 km/h
520 27-12-2009 08:01:05 -3.2 C 3.64 g/m*3 -3.2 C 0 km/h
521 27-12-2009 08:13:05 -2.9 C 3.72 g/m*3 -2.9 C 0 km/h
522 27-12-2009 08:25:05 -2.7 C 3.77 g/m*3 -2.7 C 0 km/h
523 27-12-2009 08:37:05 -2.5 C 3.83 g/m*3 -2.5 C 0 km/h
524 27-12-2009 08:49:05 -2.4 C 3.89 g/m*3 -2.4 C 0 km/h
525 27-12-2009 09:01:02 -2.3 C 3.92 g/m*3 -2.3 C 0 km/h
Sensor: Nr:Datum:Temp:Abs-Feuchte:Windchill:Wind:
Aussen-T/F 526 27-12-2009 09:13:02 -2.2 C 3.95 g/m*3 -2.2 C 0 km/h
527 27-12-2009 09:25:02 -1.4 C 4.18 g/m*3 -1.4 C 0 km/h
528 27-12-2009 09:37:02 -1.1 C 4.26 g/m*3 -1.1 C 0 km/h
529 27-12-2009 09:49:01 -0.6 C 4.42 g/m*3 -0.6 C 0 km/h
530 27-12-2009 10:01:01 -0.4 C 4.48 g/m*3 -0.4 C 0 km/h
531 27-12-2009 10:13:01 -0.1 C 4.57 g/m*3 -0.1 C 0 km/h
532 27-12-2009 10:25:01 0.2 C 4.67 g/m*3 0.2 C 0 km/h
533 27-12-2009 10:37:01 0.5 C 4.71 g/m*3 0.5 C 0 km/h
534 27-12-2009 10:49:02 0.7 C 4.78 g/m*3 0.7 C 0 km/h
535 27-12-2009 11:01:02 0.7 C 4.78 g/m*3 0.7 C 0 km/h
536 27-12-2009 11:13:02 0.8 C 4.76 g/m*3 0.8 C 0 km/h
537 27-12-2009 11:25:02 1.2 C 4.84 g/m*3 1.2 C 0 km/h
538 27-12-2009 11:37:02 1.4 C 4.91 g/m*3 1.4 C 0 km/h
539 27-12-2009 11:49:02 1.7 C 4.85 g/m*3 1.7 C 0 km/h
540 27-12-2009 12:01:02 1.6 C 4.65 g/m*3 1.6 C 0 km/h
541 27-12-2009 12:13:02 1.8 C 4.49 g/m*3 1.8 C 0 km/h
542 27-12-2009 12:25:02 2 C 4.5 g/m*3 2 C 0 km/h
543 27-12-2009 12:37:02 2.1 C 4.48 g/m*3 2.1 C 0 km/h
544 27-12-2009 12:49:02 2.1 C 4.48 g/m*3 2.1 C 0 km/h
545 27-12-2009 13:01:02 2.1 C 4.48 g/m*3 2.1 C 0 km/h
546 27-12-2009 13:13:02 2.1 C 4.53 g/m*3 2.1 C 0 km/h
547 27-12-2009 13:25:02 2.4 C 4.68 g/m*3 2.4 C 0 km/h
548 27-12-2009 13:37:02 2.4 C 4.68 g/m*3 2.4 C 0 km/h
549 27-12-2009 13:49:01 2.6 C 4.69 g/m*3 2.6 C 0 km/h
550 27-12-2009 14:01:01 2.7 C 4.72 g/m*3 2.7 C 0 km/h
Sensor: Nr:Datum:Temp:Abs-Feuchte:Windchill:Wind:
Aussen-T/F 551 27-12-2009 14:13:02 2.7 C 4.72 g/m*3 2.7 C 0 km/h
552 27-12-2009 14:25:01 2.7 C 4.66 g/m*3 2.7 C 0 km/h
553 27-12-2009 14:37:01 2.7 C 4.66 g/m*3 2.7 C 0 km/h
554 27-12-2009 14:49:01 2.6 C 4.57 g/m*3 2.6 C 0 km/h
555 27-12-2009 15:01:01 2.6 C 4.63 g/m*3 2.6 C 0 km/h
556 27-12-2009 15:13:01 2.6 C 4.63 g/m*3 2.6 C 0 km/h
557 27-12-2009 15:25:02 2.6 C 4.69 g/m*3 2.6 C 0 km/h
558 27-12-2009 15:37:01 2.5 C 4.66 g/m*3 2.5 C 0 km/h
559 27-12-2009 15:49:02 2.4 C 4.68 g/m*3 2.4 C 0 km/h
560 27-12-2009 16:01:02 2.4 C 4.74 g/m*3 2.4 C 0 km/h
561 27-12-2009 16:13:02 2.4 C 4.74 g/m*3 2.4 C 0 km/h
562 27-12-2009 16:25:03 2.3 C 4.76 g/m*3 2.3 C 0 km/h
563 27-12-2009 16:37:02 2.4 C 4.8 g/m*3 2.4 C 0 km/h
564 27-12-2009 16:49:02 2.6 C 4.86 g/m*3 2.6 C 0 km/h
565 27-12-2009 17:01:02 3.2 C 4.82 g/m*3 3.2 C 0 km/h
566 27-12-2009 17:13:02 3.3 C 4.73 g/m*3 3.3 C 0 km/h
567 27-12-2009 17:25:02 3.2 C 4.64 g/m*3 3.2 C 0 km/h
568 27-12-2009 17:37:02 3.2 C 4.7 g/m*3 3.2 C 0 km/h
569 27-12-2009 17:49:02 3.2 C 4.7 g/m*3 3.2 C 0 km/h
570 27-12-2009 18:01:01 3.1 C 4.67 g/m*3 3.1 C 0 km/h
571 27-12-2009 18:13:01 3.1 C 4.73 g/m*3 3.1 C 0 km/h
572 27-12-2009 18:25:02 3.4 C 4.83 g/m*3 3.4 C 0 km/h
573 27-12-2009 18:37:02 3.5 C 4.8 g/m*3 3.5 C 0 km/h
574 27-12-2009 18:49:02 3.4 C 4.83 g/m*3 3.4 C 0 km/h
575 27-12-2009 19:01:03 3.4 C 4.89 g/m*3 3.4 C 0 km/h
Sensor: Nr:Datum:Temp:Abs-Feuchte:Windchill:Wind:
Aussen-T/F 576 27-12-2009 19:13:03 3.4 C 4.95 g/m*3 3.4 C 0 km/h
577 27-12-2009 19:25:02 3.4 C 4.95 g/m*3 3.4 C 0 km/h
578 27-12-2009 19:37:02 3.3 C 4.97 g/m*3 3.3 C 0 km/h
579 27-12-2009 19:49:01 3.4 C 5.01 g/m*3 3.4 C 0 km/h
580 27-12-2009 20:01:02 3.6 C 5.01 g/m*3 3.6 C 0 km/h
581 27-12-2009 20:13:02 3.8 C 5.02 g/m*3 3.8 C 0 km/h
582 27-12-2009 20:25:01 3.9 C 4.99 g/m*3 3.9 C 0 km/h
583 27-12-2009 20:37:02 4 C 4.9 g/m*3 4 C 0 km/h
584 27-12-2009 20:49:02 4.1 C 4.86 g/m*3 4.1 C 0 km/h
585 27-12-2009 21:01:02 4 C 4.83 g/m*3 4 C 0 km/h
586 27-12-2009 21:13:02 3.8 C 4.89 g/m*3 3.8 C 0 km/h
587 27-12-2009 21:25:01 3.6 C 4.89 g/m*3 3.6 C 0 km/h
588 27-12-2009 21:37:02 3.2 C 4.94 g/m*3 3.2 C 0 km/h
589 27-12-2009 21:49:02 3 C 4.93 g/m*3 3 C 0 km/h
590 27-12-2009 22:01:02 3 C 4.93 g/m*3 3 C 0 km/h
591 27-12-2009 22:13:02 3.2 C 5 g/m*3 3.2 C 0 km/h
592 27-12-2009 22:25:02 3.4 C 5.01 g/m*3 3.4 C 0 km/h
593 27-12-2009 22:37:02 3.5 C 4.98 g/m*3 3.5 C 0 km/h
594 27-12-2009 22:50:03 3.6 C 5.01 g/m*3 3.6 C 0 km/h
595 27-12-2009 23:02:03 3.2 C 4.94 g/m*3 3.2 C 0 km/h
596 27-12-2009 23:14:03 3.2 C 4.94 g/m*3 3.2 C 0 km/h
597 27-12-2009 23:26:03 3.5 C 5.04 g/m*3 3.5 C 0 km/h
598 27-12-2009 23:38:03 3.4 C 5.07 g/m*3 3.4 C 0 km/h
599 27-12-2009 23:50:03 3.2 C 5.12 g/m*3 3.2 C 0 km/h
600 28-12-2009 00:02:03 3.1 C 5.21 g/m*3 3.1 C 0 km/h
Sensor: Nr:Datum:Temp:Abs-Feuchte:Windchill:Wind:
Aussen-T/F 601 28-12-2009 00:14:03 3 C 5.17 g/m*3 3 C 0 km/h
602 28-12-2009 00:26:03 3.1 C 5.21 g/m*3 3.1 C 0 km/h
603 28-12-2009 00:38:03 3.4 C 5.25 g/m*3 3.4 C 0 km/h
604 28-12-2009 00:50:03 3.5 C 5.16 g/m*3 3.5 C 0 km/h
605 28-12-2009 01:02:03 3.7 C 5.17 g/m*3 3.7 C 0 km/h
606 28-12-2009 01:14:03 3.8 C 5.14 g/m*3 3.8 C 0 km/h
607 28-12-2009 01:26:03 3.8 C 5.08 g/m*3 3.8 C 0 km/h
608 28-12-2009 01:38:03 3.8 C 5.08 g/m*3 3.8 C 0 km/h
609 28-12-2009 01:50:03 3.7 C 5.11 g/m*3 3.7 C 0 km/h
610 28-12-2009 02:02:03 3.7 C 5.05 g/m*3 3.7 C 0 km/h
611 28-12-2009 02:14:03 3.9 C 4.99 g/m*3 3.9 C 0 km/h
612 28-12-2009 02:26:04 3.9 C 4.93 g/m*3 3.9 C 0 km/h
613 28-12-2009 02:38:04 4 C 4.83 g/m*3 4 C 0 km/h
614 28-12-2009 02:50:04 4 C 4.77 g/m*3 4 C 0 km/h
615 28-12-2009 03:02:04 4 C 4.7 g/m*3 4 C 0 km/h
616 28-12-2009 03:14:04 3.9 C 4.74 g/m*3 3.9 C 0 km/h
617 28-12-2009 03:26:04 3.8 C 4.77 g/m*3 3.8 C 0 km/h
618 28-12-2009 03:38:04 3.7 C 4.74 g/m*3 3.7 C 0 km/h
619 28-12-2009 03:50:04 3.6 C 4.7 g/m*3 3.6 C 0 km/h
620 28-12-2009 04:02:04 3.5 C 4.73 g/m*3 3.5 C 0 km/h
621 28-12-2009 04:14:04 3.6 C 4.77 g/m*3 3.6 C 0 km/h
622 28-12-2009 04:26:04 3.6 C 4.77 g/m*3 3.6 C 0 km/h
623 28-12-2009 04:38:04 3.6 C 4.7 g/m*3 3.6 C 0 km/h
624 28-12-2009 04:50:04 3.7 C 4.61 g/m*3 3.7 C 0 km/h
625 28-12-2009 05:02:04 3.7 C 4.61 g/m*3 3.7 C 0 km/h
Sensor: Nr:Datum:Temp:Abs-Feuchte:Windchill:Wind:
Aussen-T/F 626 28-12-2009 05:14:04 3.6 C 4.64 g/m*3 3.6 C 0 km/h
627 28-12-2009 05:26:04 3.5 C 4.67 g/m*3 3.5 C 0 km/h
628 28-12-2009 05:38:04 3.5 C 4.73 g/m*3 3.5 C 0 km/h
629 28-12-2009 05:50:04 3.3 C 4.67 g/m*3 3.3 C 0 km/h
630 28-12-2009 06:02:04 3.1 C 4.79 g/m*3 3.1 C 0 km/h
631 28-12-2009 06:14:04 3.1 C 4.91 g/m*3 3.1 C 0 km/h
632 28-12-2009 06:26:04 3.1 C 4.91 g/m*3 3.1 C 0 km/h
633 28-12-2009 06:38:04 3.1 C 4.91 g/m*3 3.1 C 0 km/h
634 28-12-2009 06:50:04 3.1 C 4.91 g/m*3 3.1 C 0 km/h
635 28-12-2009 07:02:05 3.2 C 4.88 g/m*3 3.2 C 0 km/h
636 28-12-2009 07:14:05 3.2 C 4.88 g/m*3 3.2 C 0 km/h
637 28-12-2009 07:26:05 3.2 C 4.82 g/m*3 3.2 C 0 km/h
638 28-12-2009 07:38:05 3.2 C 4.76 g/m*3 3.2 C 0 km/h
639 28-12-2009 07:50:05 3.3 C 4.79 g/m*3 3.3 C 0 km/h
640 28-12-2009 08:02:05 3.3 C 4.79 g/m*3 3.3 C 0 km/h
641 28-12-2009 08:14:05 3.3 C 4.79 g/m*3 3.3 C 0 km/h
642 28-12-2009 08:26:05 3.5 C 4.8 g/m*3 3.5 C 0 km/h
643 28-12-2009 08:38:05 3.5 C 4.73 g/m*3 3.5 C 0 km/h
644 28-12-2009 08:50:05 3.5 C 4.67 g/m*3 3.5 C 0 km/h
645 28-12-2009 09:02:02 3.5 C 4.67 g/m*3 3.5 C 0 km/h
646 28-12-2009 09:14:02 3.5 C 4.61 g/m*3 3.5 C 0 km/h
647 28-12-2009 09:26:03 3.7 C 4.49 g/m*3 3.7 C 0 km/h
648 28-12-2009 09:38:02 3.7 C 4.49 g/m*3 3.7 C 0 km/h
649 28-12-2009 09:50:02 3.8 C 4.52 g/m*3 3.8 C 0 km/h
650 28-12-2009 10:02:02 3.8 C 4.45 g/m*3 3.8 C 0 km/h
Sensor: Nr:Datum:Temp:Abs-Feuchte:Windchill:Wind:
Aussen-T/F 651 28-12-2009 10:14:02 3.9 C 4.42 g/m*3 3.9 C 0 km/h
652 28-12-2009 10:26:02 3.9 C 4.42 g/m*3 3.9 C 0 km/h
653 28-12-2009 10:38:02 4 C 4.26 g/m*3 4 C 0 km/h
654 28-12-2009 10:50:02 3.8 C 4.27 g/m*3 3.8 C 0 km/h
655 28-12-2009 11:02:01 4 C 4.2 g/m*3 4 C 0 km/h
656 28-12-2009 11:14:01 4.1 C 4.22 g/m*3 4.1 C 0 km/h
657 28-12-2009 11:26:02 3.9 C 4.29 g/m*3 3.9 C 0 km/h
658 28-12-2009 11:38:02 3.7 C 4.36 g/m*3 3.7 C 0 km/h
659 28-12-2009 11:50:02 3.7 C 4.36 g/m*3 3.7 C 0 km/h
660 28-12-2009 12:02:03 4.3 C 4.48 g/m*3 4.3 C 0 km/h
661 28-12-2009 12:14:03 4.7 C 4.46 g/m*3 4.7 C 0 km/h
662 28-12-2009 12:26:02 4.9 C 4.32 g/m*3 4.9 C 0 km/h
663 28-12-2009 12:38:02 4.9 C 4.39 g/m*3 4.9 C 0 km/h
664 28-12-2009 12:50:02 4.9 C 4.39 g/m*3 4.9 C 0 km/h
665 28-12-2009 13:02:02 5 C 4.28 g/m*3 5 C 0 km/h
666 28-12-2009 13:14:02 5 C 4.28 g/m*3 5 C 0 km/h
667 28-12-2009 13:26:01 5 C 4.28 g/m*3 5 C 0 km/h
668 28-12-2009 13:38:02 5.1 C 4.24 g/m*3 5.1 C 0 km/h
669 28-12-2009 13:50:02 4.9 C 4.32 g/m*3 4.9 C 0 km/h
670 28-12-2009 14:02:02 4.8 C 4.29 g/m*3 4.8 C 0 km/h
671 28-12-2009 14:14:02 4.9 C 4.25 g/m*3 4.9 C 0 km/h
672 28-12-2009 14:26:01 4.7 C 4.13 g/m*3 4.7 C 0 km/h
673 28-12-2009 14:38:02 4.7 C 4.13 g/m*3 4.7 C 0 km/h
674 28-12-2009 14:50:02 4.7 C 4.13 g/m*3 4.7 C 0 km/h
675 28-12-2009 15:02:02 4.6 C 4.17 g/m*3 4.6 C 0 km/h
Sensor: Nr:Datum:Temp:Abs-Feuchte:Windchill:Wind:
Aussen-T/F 676 28-12-2009 15:14:02 4.5 C 4.21 g/m*3 4.5 C 0 km/h
677 28-12-2009 15:26:01 4.5 C 4.27 g/m*3 4.5 C 0 km/h
678 28-12-2009 15:38:02 4.5 C 4.27 g/m*3 4.5 C 0 km/h
679 28-12-2009 15:50:01 4.5 C 4.21 g/m*3 4.5 C 0 km/h
680 28-12-2009 16:02:02 4.4 C 4.11 g/m*3 4.4 C 0 km/h
681 28-12-2009 16:14:02 4.4 C 4.18 g/m*3 4.4 C 0 km/h
682 28-12-2009 16:26:02 4.3 C 4.15 g/m*3 4.3 C 0 km/h
683 28-12-2009 16:38:02 4.2 C 4.19 g/m*3 4.2 C 0 km/h
684 28-12-2009 16:50:02 4 C 4.2 g/m*3 4 C 0 km/h
685 28-12-2009 17:02:01 3.9 C 4.36 g/m*3 3.9 C 0 km/h
686 28-12-2009 17:14:01 3.8 C 4.39 g/m*3 3.8 C 0 km/h
687 28-12-2009 17:26:02 3.7 C 4.36 g/m*3 3.7 C 0 km/h
688 28-12-2009 17:38:01 3.7 C 4.36 g/m*3 3.7 C 0 km/h
689 28-12-2009 17:50:02 3.5 C 4.3 g/m*3 3.5 C 0 km/h
690 28-12-2009 18:02:01 3.4 C 4.34 g/m*3 3.4 C 0 km/h
691 28-12-2009 18:14:01 3.3 C 4.37 g/m*3 3.3 C 0 km/h
692 28-12-2009 18:26:01 3.4 C 4.46 g/m*3 3.4 C 0 km/h
693 28-12-2009 18:38:01 3.4 C 4.46 g/m*3 3.4 C 0 km/h
694 28-12-2009 18:50:02 3.4 C 4.4 g/m*3 3.4 C 0 km/h
695 28-12-2009 19:02:01 3.3 C 4.43 g/m*3 3.3 C 0 km/h
696 28-12-2009 19:14:01 3.1 C 4.31 g/m*3 3.1 C 0 km/h
697 28-12-2009 19:26:02 2.9 C 4.37 g/m*3 2.9 C 0 km/h
698 28-12-2009 19:38:02 2.6 C 4.28 g/m*3 2.6 C 0 km/h
699 28-12-2009 19:50:01 2.1 C 4.2 g/m*3 2.1 C 0 km/h
700 28-12-2009 20:02:02 1.6 C 4.16 g/m*3 1.6 C 0 km/h
Sensor: Nr:Datum:Temp:Abs-Feuchte:Windchill:Wind:
Aussen-T/F 701 28-12-2009 20:14:02 1.3 C 4.13 g/m*3 1.3 C 0 km/h
702 28-12-2009 20:26:01 1 C 4.15 g/m*3 1 C 0 km/h
703 28-12-2009 20:38:02 0.9 C 4.23 g/m*3 0.9 C 0 km/h
704 28-12-2009 20:50:02 0.5 C 4.11 g/m*3 0.5 C 0 km/h
705 28-12-2009 21:02:02 0.4 C 4.13 g/m*3 0.4 C 0 km/h
706 28-12-2009 21:14:02 0.5 C 4.21 g/m*3 0.5 C 0 km/h
707 28-12-2009 21:26:01 0.3 C 4.16 g/m*3 0.3 C 0 km/h
708 28-12-2009 21:38:02 0.1 C 4.1 g/m*3 0.1 C 0 km/h
709 28-12-2009 21:50:02 -0.3 C 3.99 g/m*3 -0.3 C 0 km/h
710 28-12-2009 22:02:02 -0.4 C 3.96 g/m*3 -0.4 C 0 km/h
711 28-12-2009 22:14:02 -0.5 C 3.93 g/m*3 -0.5 C 0 km/h
712 28-12-2009 22:26:02 -0.7 C 3.92 g/m*3 -0.7 C 0 km/h
713 28-12-2009 22:38:02 -0.9 C 3.87 g/m*3 -0.9 C 0 km/h
714 28-12-2009 22:51:03 -1 C 3.84 g/m*3 -1 C 0 km/h
715 28-12-2009 23:03:03 -1.2 C 3.79 g/m*3 -1.2 C 0 km/h
716 28-12-2009 23:15:03 -1.2 C 3.83 g/m*3 -1.2 C 0 km/h
717 28-12-2009 23:27:03 -1.3 C 3.85 g/m*3 -1.3 C 0 km/h
718 28-12-2009 23:39:03 -1.3 C 3.85 g/m*3 -1.3 C 0 km/h
719 28-12-2009 23:51:03 -1.3 C 3.85 g/m*3 -1.3 C 0 km/h
720 29-12-2009 00:03:03 -1.8 C 3.72 g/m*3 -1.8 C 0 km/h
721 29-12-2009 00:15:03 -1.7 C 3.75 g/m*3 -1.7 C 0 km/h
722 29-12-2009 00:27:03 -2 C 3.67 g/m*3 -2 C 0 km/h
723 29-12-2009 00:39:03 -2 C 3.71 g/m*3 -2 C 0 km/h
724 29-12-2009 00:51:03 -2.2 C 3.66 g/m*3 -2.2 C 0 km/h
725 29-12-2009 01:03:03 -2.1 C 3.68 g/m*3 -2.1 C 0 km/h
Sensor: Nr:Datum:Temp:Abs-Feuchte:Windchill:Wind:
Aussen-T/F 726 29-12-2009 01:15:03 -2.1 C 3.68 g/m*3 -2.1 C 0 km/h
727 29-12-2009 01:27:03 -2.1 C 3.73 g/m*3 -2.1 C 0 km/h
728 29-12-2009 01:39:03 -2.2 C 3.66 g/m*3 -2.2 C 0 km/h
729 29-12-2009 01:51:03 -2.1 C 3.73 g/m*3 -2.1 C 0 km/h
730 29-12-2009 02:03:03 -2.2 C 3.7 g/m*3 -2.2 C 0 km/h
731 29-12-2009 02:15:03 -2.3 C 3.67 g/m*3 -2.3 C 0 km/h
732 29-12-2009 02:27:03 -2.3 C 3.67 g/m*3 -2.3 C 0 km/h
733 29-12-2009 02:39:03 -2.3 C 3.67 g/m*3 -2.3 C 0 km/h
734 29-12-2009 02:51:04 -2.1 C 3.77 g/m*3 -2.1 C 0 km/h
735 29-12-2009 03:03:04 -2 C 3.79 g/m*3 -2 C 0 km/h
736 29-12-2009 03:15:04 -2.1 C 3.77 g/m*3 -2.1 C 0 km/h
737 29-12-2009 03:27:04 -2.2 C 3.74 g/m*3 -2.2 C 0 km/h
738 29-12-2009 03:39:04 -2.3 C 3.71 g/m*3 -2.3 C 0 km/h
739 29-12-2009 03:51:04 -2.2 C 3.78 g/m*3 -2.2 C 0 km/h
740 29-12-2009 04:03:04 -2.5 C 3.66 g/m*3 -2.5 C 0 km/h
741 29-12-2009 04:15:04 -2.5 C 3.66 g/m*3 -2.5 C 0 km/h
742 29-12-2009 04:27:04 -2.6 C 3.68 g/m*3 -2.6 C 0 km/h
743 29-12-2009 04:39:04 -2.6 C 3.68 g/m*3 -2.6 C 0 km/h
744 29-12-2009 04:51:04 -2.6 C 3.68 g/m*3 -2.6 C 0 km/h
745 29-12-2009 05:03:04 -2.8 C 3.63 g/m*3 -2.8 C 0 km/h
746 29-12-2009 05:15:04 -2.7 C 3.65 g/m*3 -2.7 C 0 km/h
747 29-12-2009 05:27:04 -2.7 C 3.69 g/m*3 -2.7 C 0 km/h
748 29-12-2009 05:39:04 -2.8 C 3.67 g/m*3 -2.8 C 0 km/h
749 29-12-2009 05:51:04 -2.9 C 3.64 g/m*3 -2.9 C 0 km/h
750 29-12-2009 06:03:04 -2.9 C 3.64 g/m*3 -2.9 C 0 km/h
Sensor: Nr:Datum:Temp:Abs-Feuchte:Windchill:Wind:
Aussen-T/F 751 29-12-2009 06:15:04 -2.9 C 3.64 g/m*3 -2.9 C 0 km/h
752 29-12-2009 06:27:04 -2.6 C 3.72 g/m*3 -2.6 C 0 km/h
753 29-12-2009 06:39:04 -2.3 C 3.84 g/m*3 -2.3 C 0 km/h
754 29-12-2009 06:51:04 -1.9 C 3.95 g/m*3 -1.9 C 0 km/h
755 29-12-2009 07:03:04 -1.7 C 4.05 g/m*3 -1.7 C 0 km/h
756 29-12-2009 07:15:05 -1.6 C 4.07 g/m*3 -1.6 C 0 km/h
757 29-12-2009 07:27:05 -1.3 C 4.16 g/m*3 -1.3 C 0 km/h
758 29-12-2009 07:39:02 -1.2 C 4.19 g/m*3 -1.2 C 0 km/h
759 29-12-2009 07:51:01 -1.1 C 4.22 g/m*3 -1.1 C 0 km/h
760 29-12-2009 08:03:01 -1.2 C 4.19 g/m*3 -1.2 C 0 km/h
761 29-12-2009 08:15:02 -1 C 4.25 g/m*3 -1 C 0 km/h
762 29-12-2009 08:27:02 -0.9 C 4.28 g/m*3 -0.9 C 0 km/h
763 29-12-2009 08:39:02 -0.7 C 4.34 g/m*3 -0.7 C 0 km/h
764 29-12-2009 08:51:02 -0.5 C 4.45 g/m*3 -0.5 C 0 km/h
765 29-12-2009 09:03:02 -0.3 C 4.51 g/m*3 -0.3 C 0 km/h
766 29-12-2009 09:15:02 -0.1 C 4.57 g/m*3 -0.1 C 0 km/h
767 29-12-2009 09:27:02 0.1 C 4.63 g/m*3 0.1 C 0 km/h
768 29-12-2009 09:39:02 0.3 C 4.7 g/m*3 0.3 C 0 km/h
769 29-12-2009 09:51:01 0.4 C 4.68 g/m*3 0.4 C 0 km/h
770 29-12-2009 10:03:02 0.6 C 4.75 g/m*3 0.6 C 0 km/h
771 29-12-2009 10:15:02 0.7 C 4.78 g/m*3 0.7 C 0 km/h
772 29-12-2009 10:27:02 1 C 4.83 g/m*3 1 C 0 km/h
773 29-12-2009 10:39:02 1.3 C 4.87 g/m*3 1.3 C 0 km/h
774 29-12-2009 10:51:01 1.4 C 4.91 g/m*3 1.4 C 0 km/h
775 29-12-2009 11:03:02 1.6 C 4.92 g/m*3 1.6 C 0 km/h
Sensor: Nr:Datum:Temp:Abs-Feuchte:Windchill:Wind:
Aussen-T/F 776 29-12-2009 11:15:02 1.8 C 4.93 g/m*3 1.8 C 0 km/h
777 29-12-2009 11:27:02 1.8 C 4.88 g/m*3 1.8 C 0 km/h
778 29-12-2009 11:39:01 1.9 C 4.86 g/m*3 1.9 C 0 km/h
779 29-12-2009 11:51:02 2.2 C 4.9 g/m*3 2.2 C 0 km/h
780 29-12-2009 12:03:01 2.3 C 4.82 g/m*3 2.3 C 0 km/h
781 29-12-2009 12:15:01 2.2 C 4.79 g/m*3 2.2 C 0 km/h
782 29-12-2009 12:27:02 2.3 C 4.82 g/m*3 2.3 C 0 km/h
783 29-12-2009 12:39:01 2.3 C 4.88 g/m*3 2.3 C 0 km/h
784 29-12-2009 12:51:02 2.3 C 4.88 g/m*3 2.3 C 0 km/h
785 29-12-2009 13:03:02 2.3 C 4.93 g/m*3 2.3 C 0 km/h
786 29-12-2009 13:15:02 2.2 C 4.96 g/m*3 2.2 C 0 km/h
787 29-12-2009 13:27:02 2.1 C 4.92 g/m*3 2.1 C 0 km/h
788 29-12-2009 13:39:02 1.9 C 4.91 g/m*3 1.9 C 0 km/h
789 29-12-2009 13:51:02 1.8 C 4.93 g/m*3 1.8 C 0 km/h
790 29-12-2009 14:03:02 1.8 C 4.93 g/m*3 1.8 C 0 km/h
791 29-12-2009 14:15:01 1.8 C 4.93 g/m*3 1.8 C 0 km/h
792 29-12-2009 14:27:01 1.8 C 4.99 g/m*3 1.8 C 0 km/h
793 29-12-2009 14:39:02 1.9 C 5.08 g/m*3 1.9 C 0 km/h
794 29-12-2009 14:51:02 1.9 C 5.08 g/m*3 1.9 C 0 km/h
795 29-12-2009 15:03:02 2 C 5.06 g/m*3 2 C 0 km/h
796 29-12-2009 15:15:01 2 C 5.11 g/m*3 2 C 0 km/h
797 29-12-2009 15:27:01 1.9 C 5.13 g/m*3 1.9 C 0 km/h
798 29-12-2009 15:39:02 1.9 C 5.13 g/m*3 1.9 C 0 km/h
799 29-12-2009 15:51:02 1.9 C 5.13 g/m*3 1.9 C 0 km/h
800 29-12-2009 16:03:02 1.9 C 5.13 g/m*3 1.9 C 0 km/h
Sensor: Nr:Datum:Temp:Abs-Feuchte:Windchill:Wind:
Aussen-T/F 801 29-12-2009 16:15:02 1.9 C 5.13 g/m*3 1.9 C 0 km/h
802 29-12-2009 16:27:02 1.8 C 5.15 g/m*3 1.8 C 0 km/h
803 29-12-2009 16:39:02 1.8 C 5.15 g/m*3 1.8 C 0 km/h
804 29-12-2009 16:51:01 1.9 C 5.19 g/m*3 1.9 C 0 km/h
805 29-12-2009 17:03:02 1.9 C 5.19 g/m*3 1.9 C 0 km/h
806 29-12-2009 17:15:01 2 C 5.22 g/m*3 2 C 0 km/h
807 29-12-2009 17:27:01 2 C 5.28 g/m*3 2 C 0 km/h
808 29-12-2009 17:39:01 2.1 C 5.31 g/m*3 2.1 C 0 km/h
809 29-12-2009 17:51:02 2.1 C 5.31 g/m*3 2.1 C 0 km/h
810 29-12-2009 18:03:02 2.1 C 5.31 g/m*3 2.1 C 0 km/h
811 29-12-2009 18:15:01 2.2 C 5.35 g/m*3 2.2 C 0 km/h
812 29-12-2009 18:27:01 2.2 C 5.35 g/m*3 2.2 C 0 km/h
813 29-12-2009 18:39:02 2.2 C 5.35 g/m*3 2.2 C 0 km/h
814 29-12-2009 18:51:02 2.4 C 5.42 g/m*3 2.4 C 0 km/h
815 29-12-2009 19:03:02 2.3 C 5.39 g/m*3 2.3 C 0 km/h
816 29-12-2009 19:15:01 2.4 C 5.42 g/m*3 2.4 C 0 km/h
817 29-12-2009 19:27:01 2.4 C 5.42 g/m*3 2.4 C 0 km/h
818 29-12-2009 19:39:02 2.4 C 5.42 g/m*3 2.4 C 0 km/h
819 29-12-2009 19:51:02 2.4 C 5.42 g/m*3 2.4 C 0 km/h
820 29-12-2009 20:03:02 2.4 C 5.42 g/m*3 2.4 C 0 km/h
821 29-12-2009 20:15:02 2.4 C 5.42 g/m*3 2.4 C 0 km/h
822 29-12-2009 20:27:02 2.4 C 5.42 g/m*3 2.4 C 0 km/h
823 29-12-2009 20:39:02 2.4 C 5.42 g/m*3 2.4 C 0 km/h
824 29-12-2009 20:51:02 2.4 C 5.42 g/m*3 2.4 C 0 km/h
825 29-12-2009 21:03:02 2.4 C 5.42 g/m*3 2.4 C 0 km/h
Sensor: Nr:Datum:Temp:Abs-Feuchte:Windchill:Wind:
Aussen-T/F 826 29-12-2009 21:15:03 2.5 C 5.46 g/m*3 2.5 C 0 km/h
827 29-12-2009 21:27:03 2.5 C 5.46 g/m*3 2.5 C 0 km/h
828 29-12-2009 21:39:02 2.5 C 5.46 g/m*3 2.5 C 0 km/h
829 29-12-2009 21:51:02 2.5 C 5.46 g/m*3 2.5 C 0 km/h
830 29-12-2009 22:03:02 2.5 C 5.46 g/m*3 2.5 C 0 km/h
831 29-12-2009 22:15:02 2.5 C 5.46 g/m*3 2.5 C 0 km/h
832 29-12-2009 22:27:02 2.5 C 5.46 g/m*3 2.5 C 0 km/h
833 29-12-2009 22:39:02 2.5 C 5.46 g/m*3 2.5 C 0 km/h
834 29-12-2009 22:51:02 2.6 C 5.5 g/m*3 2.6 C 0 km/h
835 29-12-2009 23:04:51 2.6 C 5.5 g/m*3 2.6 C 0 km/h
836 29-12-2009 23:16:51 2.7 C 5.54 g/m*3 2.7 C 0 km/h
837 29-12-2009 23:28:51 2.7 C 5.54 g/m*3 2.7 C 0 km/h
838 29-12-2009 23:40:51 2.8 C 5.57 g/m*3 2.8 C 0 km/h
839 29-12-2009 23:52:51 2.8 C 5.57 g/m*3 2.8 C 0 km/h

Legende:
   Min
   Max


Maximal/Minimal-Werte vom 23.12.2009 - 29.12.2009

Sensor Min Max Avg
Temp
(Aussen-T/F)
-3.2 °C
27-12-2009  07:13:05
7.1 °C
25-12-2009  07:11:03
1.91 °C
Abs-Feuchte
(Aussen-T/F)
3.63 g/m*3
29-12-2009  05:03:04
7.41 g/m*3
25-12-2009  07:11:03
4.68 g/m*3
Windchill
(Aussen-T/F)
-3.2 C
27-12-2009  07:13:05
7.1 C
25-12-2009  07:11:03
1.91 C

Die Daten stammen von einer Davis Vantage Pro 2 Wetter-Station und werden unter Linux mit der Software wview2wettercgi und aufbereitet. Alle Angaben erfolgen ohne Gewähr für ihre Vollständigkeit oder Richtigkeit.
Kontakt: Rainer Krienke krienke@uni-koblenz.de . Meine Webseiten an der Uni Koblenz oder privat.
Version: $Revision: 0.78 $